sensor_id;sensor_type;location;lat;lon;timestamp;P1;durP1;ratioP1;P2;durP2;ratioP2
41253;SDS011;26987;59.928;30.306;2024-02-21T00:00:21;11.70;;;2.88;;
41253;SDS011;26987;59.928;30.306;2024-02-21T00:02:49;7.90;;;2.92;;
41253;SDS011;26987;59.928;30.306;2024-02-21T00:05:18;10.85;;;2.88;;
41253;SDS011;26987;59.928;30.306;2024-02-21T00:07:47;6.25;;;3.08;;
41253;SDS011;26987;59.928;30.306;2024-02-21T00:10:15;8.90;;;2.30;;
41253;SDS011;26987;59.928;30.306;2024-02-21T00:12:44;7.38;;;2.55;;
41253;SDS011;26987;59.928;30.306;2024-02-21T00:15:14;10.95;;;2.92;;
41253;SDS011;26987;59.928;30.306;2024-02-21T00:17:44;8.85;;;2.85;;
41253;SDS011;26987;59.928;30.306;2024-02-21T00:20:12;9.70;;;3.25;;
41253;SDS011;26987;59.928;30.306;2024-02-21T00:22:40;6.03;;;3.03;;
41253;SDS011;26987;59.928;30.306;2024-02-21T00:25:08;7.78;;;2.90;;
41253;SDS011;26987;59.928;30.306;2024-02-21T00:27:36;4.95;;;2.55;;
41253;SDS011;26987;59.928;30.306;2024-02-21T00:30:07;9.77;;;3.00;;
41253;SDS011;26987;59.928;30.306;2024-02-21T00:32:37;9.32;;;2.75;;
41253;SDS011;26987;59.928;30.306;2024-02-21T00:35:05;12.00;;;2.78;;
41253;SDS011;26987;59.928;30.306;2024-02-21T00:37:34;8.73;;;3.25;;
41253;SDS011;26987;59.928;30.306;2024-02-21T00:40:02;7.43;;;3.05;;
41253;SDS011;26987;59.928;30.306;2024-02-21T00:42:31;13.93;;;3.05;;
41253;SDS011;26987;59.928;30.306;2024-02-21T00:44:59;6.15;;;2.97;;
41253;SDS011;26987;59.928;30.306;2024-02-21T00:47:27;6.13;;;2.67;;
41253;SDS011;26987;59.928;30.306;2024-02-21T00:49:59;15.65;;;2.65;;
41253;SDS011;26987;59.928;30.306;2024-02-21T00:52:30;12.20;;;2.75;;
41253;SDS011;26987;59.928;30.306;2024-02-21T00:54:57;6.05;;;2.53;;
41253;SDS011;26987;59.928;30.306;2024-02-21T00:57:26;11.13;;;2.92;;
41253;SDS011;26987;59.928;30.306;2024-02-21T00:59:54;8.85;;;2.72;;
41253;SDS011;26987;59.928;30.306;2024-02-21T01:02:22;4.75;;;2.50;;
41253;SDS011;26987;59.928;30.306;2024-02-21T01:04:50;10.13;;;2.70;;
41253;SDS011;26987;59.928;30.306;2024-02-21T01:07:20;5.60;;;2.83;;
41253;SDS011;26987;59.928;30.306;2024-02-21T01:09:48;6.70;;;2.60;;
41253;SDS011;26987;59.928;30.306;2024-02-21T01:12:17;6.55;;;2.22;;
41253;SDS011;26987;59.928;30.306;2024-02-21T01:14:45;6.30;;;2.25;;
41253;SDS011;26987;59.928;30.306;2024-02-21T01:17:13;7.63;;;2.75;;
41253;SDS011;26987;59.928;30.306;2024-02-21T01:19:41;5.55;;;2.53;;
41253;SDS011;26987;59.928;30.306;2024-02-21T01:22:09;10.02;;;2.38;;
41253;SDS011;26987;59.928;30.306;2024-02-21T01:24:38;8.88;;;2.85;;
41253;SDS011;26987;59.928;30.306;2024-02-21T01:27:06;5.78;;;2.58;;
41253;SDS011;26987;59.928;30.306;2024-02-21T01:29:34;9.48;;;3.58;;
41253;SDS011;26987;59.928;30.306;2024-02-21T01:32:02;5.53;;;2.20;;
41253;SDS011;26987;59.928;30.306;2024-02-21T01:34:30;10.15;;;3.03;;
41253;SDS011;26987;59.928;30.306;2024-02-21T01:36:59;7.78;;;2.88;;
41253;SDS011;26987;59.928;30.306;2024-02-21T01:39:30;7.68;;;2.60;;
41253;SDS011;26987;59.928;30.306;2024-02-21T01:41:59;10.23;;;2.78;;
41253;SDS011;26987;59.928;30.306;2024-02-21T01:44:28;8.85;;;3.28;;
41253;SDS011;26987;59.928;30.306;2024-02-21T01:46:56;6.07;;;2.40;;
41253;SDS011;26987;59.928;30.306;2024-02-21T01:49:27;6.65;;;2.47;;
41253;SDS011;26987;59.928;30.306;2024-02-21T01:51:56;8.15;;;2.70;;
41253;SDS011;26987;59.928;30.306;2024-02-21T01:54:24;8.65;;;3.05;;
41253;SDS011;26987;59.928;30.306;2024-02-21T01:56:55;6.28;;;2.83;;
41253;SDS011;26987;59.928;30.306;2024-02-21T01:59:25;18.02;;;3.90;;
41253;SDS011;26987;59.928;30.306;2024-02-21T02:01:53;6.60;;;2.53;;
41253;SDS011;26987;59.928;30.306;2024-02-21T02:04:22;8.32;;;2.78;;
41253;SDS011;26987;59.928;30.306;2024-02-21T02:06:53;7.80;;;2.88;;
41253;SDS011;26987;59.928;30.306;2024-02-21T02:09:22;11.27;;;3.08;;
41253;SDS011;26987;59.928;30.306;2024-02-21T02:11:50;8.50;;;2.95;;
41253;SDS011;26987;59.928;30.306;2024-02-21T02:14:18;12.27;;;2.97;;
41253;SDS011;26987;59.928;30.306;2024-02-21T02:16:47;6.25;;;2.47;;
41253;SDS011;26987;59.928;30.306;2024-02-21T02:19:16;10.80;;;2.67;;
41253;SDS011;26987;59.928;30.306;2024-02-21T02:21:46;9.00;;;2.72;;
41253;SDS011;26987;59.928;30.306;2024-02-21T02:24:23;6.53;;;2.22;;
41253;SDS011;26987;59.928;30.306;2024-02-21T02:26:52;10.63;;;3.20;;
41253;SDS011;26987;59.928;30.306;2024-02-21T02:29:20;10.13;;;3.40;;
41253;SDS011;26987;59.928;30.306;2024-02-21T02:31:49;11.82;;;2.38;;
41253;SDS011;26987;59.928;30.306;2024-02-21T02:34:17;5.85;;;2.67;;
41253;SDS011;26987;59.928;30.306;2024-02-21T02:36:45;7.57;;;2.67;;
41253;SDS011;26987;59.928;30.306;2024-02-21T02:39:14;10.73;;;3.10;;
41253;SDS011;26987;59.928;30.306;2024-02-21T02:41:44;8.68;;;2.97;;
41253;SDS011;26987;59.928;30.306;2024-02-21T02:44:12;8.63;;;2.88;;
41253;SDS011;26987;59.928;30.306;2024-02-21T02:46:40;6.97;;;2.60;;
41253;SDS011;26987;59.928;30.306;2024-02-21T02:49:14;4.57;;;2.28;;
41253;SDS011;26987;59.928;30.306;2024-02-21T02:51:42;9.98;;;2.90;;
41253;SDS011;26987;59.928;30.306;2024-02-21T02:54:10;11.90;;;2.75;;
41253;SDS011;26987;59.928;30.306;2024-02-21T02:56:39;6.70;;;2.75;;
41253;SDS011;26987;59.928;30.306;2024-02-21T02:59:09;5.80;;;2.70;;
41253;SDS011;26987;59.928;30.306;2024-02-21T03:01:36;6.93;;;3.03;;
41253;SDS011;26987;59.928;30.306;2024-02-21T03:04:05;11.82;;;3.38;;
41253;SDS011;26987;59.928;30.306;2024-02-21T03:06:33;7.15;;;2.58;;
41253;SDS011;26987;59.928;30.306;2024-02-21T03:09:01;9.27;;;2.70;;
41253;SDS011;26987;59.928;30.306;2024-02-21T03:11:35;10.15;;;2.50;;
41253;SDS011;26987;59.928;30.306;2024-02-21T03:14:03;8.23;;;2.67;;
41253;SDS011;26987;59.928;30.306;2024-02-21T03:16:33;6.07;;;2.45;;
41253;SDS011;26987;59.928;30.306;2024-02-21T03:19:01;10.05;;;4.25;;
41253;SDS011;26987;59.928;30.306;2024-02-21T03:21:29;12.68;;;3.25;;
41253;SDS011;26987;59.928;30.306;2024-02-21T03:23:57;9.55;;;2.95;;
41253;SDS011;26987;59.928;30.306;2024-02-21T03:26:25;6.25;;;2.85;;
41253;SDS011;26987;59.928;30.306;2024-02-21T03:28:53;6.60;;;2.40;;
41253;SDS011;26987;59.928;30.306;2024-02-21T03:31:21;9.00;;;3.17;;
41253;SDS011;26987;59.928;30.306;2024-02-21T03:33:50;10.38;;;3.42;;
41253;SDS011;26987;59.928;30.306;2024-02-21T03:36:18;10.05;;;3.00;;
41253;SDS011;26987;59.928;30.306;2024-02-21T03:38:46;7.18;;;2.47;;
41253;SDS011;26987;59.928;30.306;2024-02-21T03:41:14;6.82;;;2.80;;
41253;SDS011;26987;59.928;30.306;2024-02-21T03:43:42;4.75;;;2.25;;
41253;SDS011;26987;59.928;30.306;2024-02-21T03:46:10;12.63;;;3.35;;
41253;SDS011;26987;59.928;30.306;2024-02-21T03:48:38;5.75;;;2.53;;
41253;SDS011;26987;59.928;30.306;2024-02-21T03:51:07;8.80;;;2.78;;
41253;SDS011;26987;59.928;30.306;2024-02-21T03:53:35;7.28;;;2.70;;
41253;SDS011;26987;59.928;30.306;2024-02-21T03:56:03;5.65;;;2.80;;
41253;SDS011;26987;59.928;30.306;2024-02-21T03:58:31;6.82;;;2.40;;
41253;SDS011;26987;59.928;30.306;2024-02-21T04:00:59;9.45;;;2.53;;
41253;SDS011;26987;59.928;30.306;2024-02-21T04:03:28;16.77;;;2.88;;
41253;SDS011;26987;59.928;30.306;2024-02-21T04:05:56;12.65;;;3.47;;
41253;SDS011;26987;59.928;30.306;2024-02-21T04:08:25;10.02;;;3.45;;
41253;SDS011;26987;59.928;30.306;2024-02-21T04:10:53;8.25;;;2.92;;
41253;SDS011;26987;59.928;30.306;2024-02-21T04:13:21;5.75;;;3.08;;
41253;SDS011;26987;59.928;30.306;2024-02-21T04:15:49;6.53;;;2.60;;
41253;SDS011;26987;59.928;30.306;2024-02-21T04:18:17;12.18;;;3.45;;
41253;SDS011;26987;59.928;30.306;2024-02-21T04:20:45;11.15;;;3.80;;
41253;SDS011;26987;59.928;30.306;2024-02-21T04:23:13;14.02;;;3.53;;
41253;SDS011;26987;59.928;30.306;2024-02-21T04:25:42;9.63;;;3.53;;
41253;SDS011;26987;59.928;30.306;2024-02-21T04:28:10;9.55;;;3.58;;
41253;SDS011;26987;59.928;30.306;2024-02-21T04:30:38;9.57;;;3.38;;
41253;SDS011;26987;59.928;30.306;2024-02-21T04:33:06;10.43;;;3.65;;
41253;SDS011;26987;59.928;30.306;2024-02-21T04:35:35;10.15;;;3.95;;
41253;SDS011;26987;59.928;30.306;2024-02-21T04:38:04;8.63;;;2.90;;
41253;SDS011;26987;59.928;30.306;2024-02-21T04:40:32;11.68;;;3.92;;
41253;SDS011;26987;59.928;30.306;2024-02-21T04:43:02;8.10;;;3.17;;
41253;SDS011;26987;59.928;30.306;2024-02-21T04:45:31;7.90;;;3.08;;
41253;SDS011;26987;59.928;30.306;2024-02-21T04:47:58;8.75;;;3.10;;
41253;SDS011;26987;59.928;30.306;2024-02-21T04:50:26;11.30;;;3.60;;
41253;SDS011;26987;59.928;30.306;2024-02-21T04:52:54;9.88;;;2.92;;
41253;SDS011;26987;59.928;30.306;2024-02-21T04:55:22;11.25;;;3.67;;
41253;SDS011;26987;59.928;30.306;2024-02-21T04:57:50;16.17;;;3.10;;
41253;SDS011;26987;59.928;30.306;2024-02-21T05:00:20;10.40;;;3.83;;
41253;SDS011;26987;59.928;30.306;2024-02-21T05:02:48;6.50;;;2.35;;
41253;SDS011;26987;59.928;30.306;2024-02-21T05:05:16;7.18;;;3.03;;
41253;SDS011;26987;59.928;30.306;2024-02-21T05:07:44;10.27;;;3.15;;
41253;SDS011;26987;59.928;30.306;2024-02-21T05:10:12;7.22;;;3.38;;
41253;SDS011;26987;59.928;30.306;2024-02-21T05:12:40;10.75;;;3.92;;
41253;SDS011;26987;59.928;30.306;2024-02-21T05:15:08;13.15;;;4.25;;
41253;SDS011;26987;59.928;30.306;2024-02-21T05:17:37;14.27;;;5.43;;
41253;SDS011;26987;59.928;30.306;2024-02-21T05:20:06;16.70;;;4.75;;
41253;SDS011;26987;59.928;30.306;2024-02-21T05:22:34;15.02;;;5.32;;
41253;SDS011;26987;59.928;30.306;2024-02-21T05:25:02;14.95;;;4.45;;
41253;SDS011;26987;59.928;30.306;2024-02-21T05:27:31;11.23;;;4.28;;
41253;SDS011;26987;59.928;30.306;2024-02-21T05:29:59;13.75;;;3.70;;
41253;SDS011;26987;59.928;30.306;2024-02-21T05:32:31;16.20;;;4.22;;
41253;SDS011;26987;59.928;30.306;2024-02-21T05:35:00;10.18;;;4.18;;
41253;SDS011;26987;59.928;30.306;2024-02-21T05:37:28;11.07;;;3.90;;
41253;SDS011;26987;59.928;30.306;2024-02-21T05:39:56;12.75;;;3.80;;
41253;SDS011;26987;59.928;30.306;2024-02-21T05:42:24;12.90;;;4.18;;
41253;SDS011;26987;59.928;30.306;2024-02-21T05:44:52;12.80;;;3.10;;
41253;SDS011;26987;59.928;30.306;2024-02-21T05:47:19;11.35;;;4.40;;
41253;SDS011;26987;59.928;30.306;2024-02-21T05:49:47;9.45;;;3.08;;
41253;SDS011;26987;59.928;30.306;2024-02-21T05:52:16;11.52;;;3.67;;
41253;SDS011;26987;59.928;30.306;2024-02-21T05:54:44;9.80;;;3.92;;
41253;SDS011;26987;59.928;30.306;2024-02-21T05:57:12;8.68;;;3.42;;
41253;SDS011;26987;59.928;30.306;2024-02-21T05:59:40;10.00;;;2.80;;
41253;SDS011;26987;59.928;30.306;2024-02-21T06:02:09;14.07;;;2.58;;
41253;SDS011;26987;59.928;30.306;2024-02-21T06:04:37;13.25;;;3.05;;
41253;SDS011;26987;59.928;30.306;2024-02-21T06:07:05;10.15;;;3.17;;
41253;SDS011;26987;59.928;30.306;2024-02-21T06:09:35;7.03;;;3.00;;
41253;SDS011;26987;59.928;30.306;2024-02-21T06:12:03;8.07;;;2.60;;
41253;SDS011;26987;59.928;30.306;2024-02-21T06:14:31;11.27;;;2.55;;
41253;SDS011;26987;59.928;30.306;2024-02-21T06:16:59;11.43;;;2.90;;
41253;SDS011;26987;59.928;30.306;2024-02-21T06:19:27;7.35;;;2.92;;
41253;SDS011;26987;59.928;30.306;2024-02-21T06:21:54;8.45;;;3.47;;
41253;SDS011;26987;59.928;30.306;2024-02-21T06:24:22;8.73;;;3.42;;
41253;SDS011;26987;59.928;30.306;2024-02-21T06:26:52;10.00;;;3.25;;
41253;SDS011;26987;59.928;30.306;2024-02-21T06:29:20;16.02;;;3.33;;
41253;SDS011;26987;59.928;30.306;2024-02-21T06:31:48;6.28;;;3.03;;
41253;SDS011;26987;59.928;30.306;2024-02-21T06:34:16;9.13;;;3.17;;
41253;SDS011;26987;59.928;30.306;2024-02-21T06:36:44;11.95;;;3.50;;
41253;SDS011;26987;59.928;30.306;2024-02-21T06:39:12;16.85;;;3.13;;
41253;SDS011;26987;59.928;30.306;2024-02-21T06:41:40;12.10;;;2.58;;
41253;SDS011;26987;59.928;30.306;2024-02-21T06:44:09;11.23;;;2.78;;
41253;SDS011;26987;59.928;30.306;2024-02-21T06:46:41;9.35;;;2.78;;
41253;SDS011;26987;59.928;30.306;2024-02-21T06:49:09;9.25;;;3.22;;
41253;SDS011;26987;59.928;30.306;2024-02-21T06:51:41;8.13;;;3.03;;
41253;SDS011;26987;59.928;30.306;2024-02-21T06:54:09;8.40;;;2.88;;
41253;SDS011;26987;59.928;30.306;2024-02-21T06:56:39;13.15;;;3.40;;
41253;SDS011;26987;59.928;30.306;2024-02-21T06:59:07;15.77;;;2.97;;
41253;SDS011;26987;59.928;30.306;2024-02-21T07:01:37;10.52;;;3.92;;
41253;SDS011;26987;59.928;30.306;2024-02-21T07:04:05;5.57;;;2.72;;
41253;SDS011;26987;59.928;30.306;2024-02-21T07:06:33;8.27;;;2.45;;
41253;SDS011;26987;59.928;30.306;2024-02-21T07:09:01;8.98;;;2.65;;
41253;SDS011;26987;59.928;30.306;2024-02-21T07:11:29;10.73;;;2.90;;
41253;SDS011;26987;59.928;30.306;2024-02-21T07:13:57;10.55;;;2.97;;
41253;SDS011;26987;59.928;30.306;2024-02-21T07:16:24;14.27;;;3.00;;
41253;SDS011;26987;59.928;30.306;2024-02-21T07:18:54;7.53;;;2.90;;
41253;SDS011;26987;59.928;30.306;2024-02-21T07:21:22;8.27;;;2.92;;
41253;SDS011;26987;59.928;30.306;2024-02-21T07:23:53;10.63;;;3.03;;
41253;SDS011;26987;59.928;30.306;2024-02-21T07:26:20;8.45;;;2.83;;
41253;SDS011;26987;59.928;30.306;2024-02-21T07:28:49;10.43;;;2.88;;
41253;SDS011;26987;59.928;30.306;2024-02-21T07:31:17;13.88;;;3.28;;
41253;SDS011;26987;59.928;30.306;2024-02-21T07:33:44;9.77;;;2.78;;
41253;SDS011;26987;59.928;30.306;2024-02-21T07:36:14;12.68;;;3.30;;
41253;SDS011;26987;59.928;30.306;2024-02-21T07:38:43;20.20;;;3.42;;
41253;SDS011;26987;59.928;30.306;2024-02-21T07:41:11;9.45;;;3.03;;
41253;SDS011;26987;59.928;30.306;2024-02-21T07:43:39;12.20;;;4.50;;
41253;SDS011;26987;59.928;30.306;2024-02-21T07:46:07;12.55;;;4.20;;
41253;SDS011;26987;59.928;30.306;2024-02-21T07:48:34;10.73;;;4.28;;
41253;SDS011;26987;59.928;30.306;2024-02-21T07:51:02;17.88;;;3.75;;
41253;SDS011;26987;59.928;30.306;2024-02-21T07:53:32;10.27;;;4.15;;
41253;SDS011;26987;59.928;30.306;2024-02-21T07:56:00;10.77;;;4.00;;
41253;SDS011;26987;59.928;30.306;2024-02-21T07:58:28;11.95;;;4.10;;
41253;SDS011;26987;59.928;30.306;2024-02-21T08:00:56;12.73;;;3.47;;
41253;SDS011;26987;59.928;30.306;2024-02-21T08:03:23;12.23;;;3.83;;
41253;SDS011;26987;59.928;30.306;2024-02-21T08:05:51;15.68;;;4.53;;
41253;SDS011;26987;59.928;30.306;2024-02-21T08:08:19;15.27;;;3.95;;
41253;SDS011;26987;59.928;30.306;2024-02-21T08:10:49;12.10;;;3.92;;
41253;SDS011;26987;59.928;30.306;2024-02-21T08:13:17;14.35;;;4.82;;
41253;SDS011;26987;59.928;30.306;2024-02-21T08:15:45;14.90;;;4.40;;
41253;SDS011;26987;59.928;30.306;2024-02-21T08:18:14;15.60;;;4.57;;
41253;SDS011;26987;59.928;30.306;2024-02-21T08:20:41;11.82;;;4.40;;
41253;SDS011;26987;59.928;30.306;2024-02-21T08:23:09;12.18;;;4.15;;
41253;SDS011;26987;59.928;30.306;2024-02-21T08:25:37;10.55;;;3.70;;
41253;SDS011;26987;59.928;30.306;2024-02-21T08:28:06;10.10;;;3.78;;
41253;SDS011;26987;59.928;30.306;2024-02-21T08:30:34;11.00;;;4.40;;
41253;SDS011;26987;59.928;30.306;2024-02-21T08:33:02;10.18;;;3.95;;
41253;SDS011;26987;59.928;30.306;2024-02-21T08:35:31;9.48;;;3.80;;
41253;SDS011;26987;59.928;30.306;2024-02-21T08:37:59;11.18;;;4.18;;
41253;SDS011;26987;59.928;30.306;2024-02-21T08:40:27;12.75;;;3.95;;
41253;SDS011;26987;59.928;30.306;2024-02-21T08:42:55;12.27;;;3.97;;
41253;SDS011;26987;59.928;30.306;2024-02-21T08:45:24;10.38;;;4.60;;
41253;SDS011;26987;59.928;30.306;2024-02-21T08:47:52;15.68;;;4.85;;
41253;SDS011;26987;59.928;30.306;2024-02-21T08:50:20;8.60;;;3.65;;
41253;SDS011;26987;59.928;30.306;2024-02-21T08:52:47;14.10;;;4.05;;
41253;SDS011;26987;59.928;30.306;2024-02-21T08:55:15;9.07;;;4.05;;
41253;SDS011;26987;59.928;30.306;2024-02-21T08:57:43;12.15;;;3.85;;
41253;SDS011;26987;59.928;30.306;2024-02-21T09:00:11;18.85;;;3.80;;
41253;SDS011;26987;59.928;30.306;2024-02-21T09:02:41;14.93;;;4.05;;
41253;SDS011;26987;59.928;30.306;2024-02-21T09:05:09;11.88;;;4.28;;
41253;SDS011;26987;59.928;30.306;2024-02-21T09:07:37;15.40;;;3.60;;
41253;SDS011;26987;59.928;30.306;2024-02-21T09:10:06;11.15;;;4.47;;
41253;SDS011;26987;59.928;30.306;2024-02-21T09:12:34;13.95;;;4.38;;
41253;SDS011;26987;59.928;30.306;2024-02-21T09:15:02;15.45;;;4.03;;
41253;SDS011;26987;59.928;30.306;2024-02-21T09:17:31;8.43;;;3.53;;
41253;SDS011;26987;59.928;30.306;2024-02-21T09:20:01;11.48;;;4.30;;
41253;SDS011;26987;59.928;30.306;2024-02-21T09:22:30;11.48;;;3.63;;
41253;SDS011;26987;59.928;30.306;2024-02-21T09:25:00;13.05;;;3.47;;
41253;SDS011;26987;59.928;30.306;2024-02-21T09:27:30;15.55;;;3.80;;
41253;SDS011;26987;59.928;30.306;2024-02-21T09:29:59;9.52;;;3.53;;
41253;SDS011;26987;59.928;30.306;2024-02-21T09:32:26;19.00;;;3.60;;
41253;SDS011;26987;59.928;30.306;2024-02-21T09:34:54;14.43;;;3.90;;
41253;SDS011;26987;59.928;30.306;2024-02-21T09:37:24;13.32;;;4.13;;
41253;SDS011;26987;59.928;30.306;2024-02-21T09:39:52;16.88;;;3.85;;
41253;SDS011;26987;59.928;30.306;2024-02-21T09:42:20;11.23;;;3.55;;
41253;SDS011;26987;59.928;30.306;2024-02-21T09:44:48;15.30;;;3.67;;
41253;SDS011;26987;59.928;30.306;2024-02-21T09:47:19;16.30;;;4.03;;
41253;SDS011;26987;59.928;30.306;2024-02-21T09:49:51;10.48;;;3.47;;
41253;SDS011;26987;59.928;30.306;2024-02-21T09:52:20;18.13;;;5.68;;
41253;SDS011;26987;59.928;30.306;2024-02-21T09:54:50;15.77;;;4.03;;
41253;SDS011;26987;59.928;30.306;2024-02-21T09:57:19;14.23;;;4.78;;
41253;SDS011;26987;59.928;30.306;2024-02-21T09:59:49;11.90;;;4.00;;
41253;SDS011;26987;59.928;30.306;2024-02-21T10:02:18;15.45;;;4.38;;
41253;SDS011;26987;59.928;30.306;2024-02-21T10:04:46;17.33;;;3.85;;
41253;SDS011;26987;59.928;30.306;2024-02-21T10:07:14;16.40;;;3.65;;
41253;SDS011;26987;59.928;30.306;2024-02-21T10:09:42;17.52;;;4.53;;
41253;SDS011;26987;59.928;30.306;2024-02-21T10:12:15;11.27;;;4.05;;
41253;SDS011;26987;59.928;30.306;2024-02-21T10:14:45;15.27;;;4.20;;
41253;SDS011;26987;59.928;30.306;2024-02-21T10:17:15;14.90;;;4.50;;
41253;SDS011;26987;59.928;30.306;2024-02-21T10:19:45;13.27;;;4.82;;
41253;SDS011;26987;59.928;30.306;2024-02-21T10:22:13;12.23;;;4.82;;
41253;SDS011;26987;59.928;30.306;2024-02-21T10:24:43;16.52;;;4.68;;
41253;SDS011;26987;59.928;30.306;2024-02-21T10:27:11;16.48;;;5.47;;
41253;SDS011;26987;59.928;30.306;2024-02-21T10:29:40;15.07;;;5.07;;
41253;SDS011;26987;59.928;30.306;2024-02-21T10:32:08;17.00;;;5.32;;
41253;SDS011;26987;59.928;30.306;2024-02-21T10:34:38;19.55;;;5.60;;
41253;SDS011;26987;59.928;30.306;2024-02-21T10:37:07;19.20;;;5.88;;
41253;SDS011;26987;59.928;30.306;2024-02-21T10:39:38;20.23;;;5.50;;
41253;SDS011;26987;59.928;30.306;2024-02-21T10:42:07;16.98;;;4.97;;
41253;SDS011;26987;59.928;30.306;2024-02-21T10:44:38;23.95;;;5.63;;
41253;SDS011;26987;59.928;30.306;2024-02-21T10:47:08;15.88;;;4.85;;
41253;SDS011;26987;59.928;30.306;2024-02-21T10:49:39;19.40;;;6.63;;
41253;SDS011;26987;59.928;30.306;2024-02-21T10:52:13;19.45;;;5.72;;
41253;SDS011;26987;59.928;30.306;2024-02-21T10:54:44;27.27;;;6.78;;
41253;SDS011;26987;59.928;30.306;2024-02-21T10:57:16;20.15;;;6.50;;
41253;SDS011;26987;59.928;30.306;2024-02-21T10:59:46;18.30;;;6.38;;
41253;SDS011;26987;59.928;30.306;2024-02-21T11:02:16;19.70;;;6.40;;
41253;SDS011;26987;59.928;30.306;2024-02-21T11:04:44;16.75;;;6.25;;
41253;SDS011;26987;59.928;30.306;2024-02-21T11:07:13;17.10;;;6.13;;
41253;SDS011;26987;59.928;30.306;2024-02-21T11:09:50;19.75;;;6.28;;
41253;SDS011;26987;59.928;30.306;2024-02-21T11:12:21;17.30;;;6.38;;
41253;SDS011;26987;59.928;30.306;2024-02-21T11:14:51;22.55;;;7.00;;
41253;SDS011;26987;59.928;30.306;2024-02-21T11:17:19;19.98;;;6.95;;
41253;SDS011;26987;59.928;30.306;2024-02-21T11:19:52;22.05;;;6.75;;
41253;SDS011;26987;59.928;30.306;2024-02-21T11:22:20;21.63;;;8.00;;
41253;SDS011;26987;59.928;30.306;2024-02-21T11:24:50;22.80;;;7.25;;
41253;SDS011;26987;59.928;30.306;2024-02-21T11:27:19;20.92;;;7.05;;
41253;SDS011;26987;59.928;30.306;2024-02-21T11:29:56;26.42;;;8.18;;
41253;SDS011;26987;59.928;30.306;2024-02-21T11:32:25;19.33;;;7.65;;
41253;SDS011;26987;59.928;30.306;2024-02-21T11:34:54;26.38;;;9.15;;
41253;SDS011;26987;59.928;30.306;2024-02-21T11:37:24;28.42;;;8.73;;
41253;SDS011;26987;59.928;30.306;2024-02-21T11:39:53;25.38;;;7.97;;
41253;SDS011;26987;59.928;30.306;2024-02-21T11:42:22;20.88;;;7.65;;
41253;SDS011;26987;59.928;30.306;2024-02-21T11:44:52;17.38;;;6.95;;
41253;SDS011;26987;59.928;30.306;2024-02-21T11:47:24;25.58;;;8.88;;
41253;SDS011;26987;59.928;30.306;2024-02-21T11:49:52;23.98;;;8.07;;
41253;SDS011;26987;59.928;30.306;2024-02-21T11:52:21;27.70;;;8.93;;
41253;SDS011;26987;59.928;30.306;2024-02-21T11:54:51;26.73;;;9.00;;
41253;SDS011;26987;59.928;30.306;2024-02-21T11:57:20;28.23;;;9.40;;
41253;SDS011;26987;59.928;30.306;2024-02-21T11:59:48;21.60;;;8.38;;
41253;SDS011;26987;59.928;30.306;2024-02-21T12:02:20;23.92;;;9.15;;
41253;SDS011;26987;59.928;30.306;2024-02-21T12:04:50;27.15;;;9.75;;
41253;SDS011;26987;59.928;30.306;2024-02-21T12:07:18;34.55;;;9.05;;
41253;SDS011;26987;59.928;30.306;2024-02-21T12:09:45;26.73;;;10.15;;
41253;SDS011;26987;59.928;30.306;2024-02-21T12:12:13;21.77;;;10.18;;
41253;SDS011;26987;59.928;30.306;2024-02-21T12:14:53;29.52;;;9.93;;
41253;SDS011;26987;59.928;30.306;2024-02-21T12:17:23;30.17;;;8.60;;
41253;SDS011;26987;59.928;30.306;2024-02-21T12:19:52;21.13;;;8.82;;
41253;SDS011;26987;59.928;30.306;2024-02-21T12:22:20;23.23;;;8.45;;
41253;SDS011;26987;59.928;30.306;2024-02-21T12:24:48;23.10;;;9.07;;
41253;SDS011;26987;59.928;30.306;2024-02-21T12:27:16;26.98;;;8.77;;
41253;SDS011;26987;59.928;30.306;2024-02-21T12:29:44;24.55;;;9.07;;
41253;SDS011;26987;59.928;30.306;2024-02-21T12:32:11;25.55;;;8.88;;
41253;SDS011;26987;59.928;30.306;2024-02-21T12:34:39;21.08;;;8.77;;
41253;SDS011;26987;59.928;30.306;2024-02-21T12:37:10;34.05;;;9.57;;
41253;SDS011;26987;59.928;30.306;2024-02-21T12:39:39;30.05;;;8.52;;
41253;SDS011;26987;59.928;30.306;2024-02-21T12:42:07;23.90;;;9.32;;
41253;SDS011;26987;59.928;30.306;2024-02-21T12:44:37;23.30;;;9.77;;
41253;SDS011;26987;59.928;30.306;2024-02-21T12:47:05;27.38;;;8.65;;
41253;SDS011;26987;59.928;30.306;2024-02-21T12:49:34;32.42;;;10.43;;
41253;SDS011;26987;59.928;30.306;2024-02-21T12:52:02;22.33;;;9.40;;
41253;SDS011;26987;59.928;30.306;2024-02-21T12:54:32;28.58;;;9.50;;
41253;SDS011;26987;59.928;30.306;2024-02-21T12:57:00;27.50;;;8.93;;
41253;SDS011;26987;59.928;30.306;2024-02-21T12:59:29;26.13;;;9.93;;
41253;SDS011;26987;59.928;30.306;2024-02-21T13:01:57;25.90;;;10.13;;
41253;SDS011;26987;59.928;30.306;2024-02-21T13:04:25;21.88;;;9.07;;
41253;SDS011;26987;59.928;30.306;2024-02-21T13:06:53;22.23;;;8.57;;
41253;SDS011;26987;59.928;30.306;2024-02-21T13:09:21;22.73;;;8.77;;
41253;SDS011;26987;59.928;30.306;2024-02-21T13:11:50;28.33;;;8.93;;
41253;SDS011;26987;59.928;30.306;2024-02-21T13:14:18;25.77;;;8.63;;
41253;SDS011;26987;59.928;30.306;2024-02-21T13:16:48;25.05;;;10.30;;
41253;SDS011;26987;59.928;30.306;2024-02-21T13:19:16;20.70;;;8.40;;
41253;SDS011;26987;59.928;30.306;2024-02-21T13:21:44;23.15;;;10.13;;
41253;SDS011;26987;59.928;30.306;2024-02-21T13:24:12;19.90;;;8.20;;
41253;SDS011;26987;59.928;30.306;2024-02-21T13:26:40;19.27;;;9.38;;
41253;SDS011;26987;59.928;30.306;2024-02-21T13:29:09;26.75;;;8.88;;
41253;SDS011;26987;59.928;30.306;2024-02-21T13:31:38;22.50;;;9.15;;
41253;SDS011;26987;59.928;30.306;2024-02-21T13:34:06;22.73;;;8.93;;
41253;SDS011;26987;59.928;30.306;2024-02-21T13:36:34;22.27;;;8.20;;
41253;SDS011;26987;59.928;30.306;2024-02-21T13:39:02;21.90;;;9.07;;
41253;SDS011;26987;59.928;30.306;2024-02-21T13:41:33;26.35;;;9.35;;
41253;SDS011;26987;59.928;30.306;2024-02-21T13:44:01;19.65;;;8.80;;
41253;SDS011;26987;59.928;30.306;2024-02-21T13:46:31;22.02;;;9.90;;
41253;SDS011;26987;59.928;30.306;2024-02-21T13:49:02;19.63;;;8.05;;
41253;SDS011;26987;59.928;30.306;2024-02-21T13:51:32;20.95;;;8.50;;
41253;SDS011;26987;59.928;30.306;2024-02-21T13:54:02;17.77;;;8.27;;
41253;SDS011;26987;59.928;30.306;2024-02-21T13:56:30;20.02;;;8.48;;
41253;SDS011;26987;59.928;30.306;2024-02-21T13:58:58;17.60;;;8.02;;
41253;SDS011;26987;59.928;30.306;2024-02-21T14:01:27;19.77;;;8.80;;
41253;SDS011;26987;59.928;30.306;2024-02-21T14:03:56;19.65;;;8.23;;
41253;SDS011;26987;59.928;30.306;2024-02-21T14:06:24;19.83;;;8.98;;
41253;SDS011;26987;59.928;30.306;2024-02-21T14:08:52;19.08;;;8.07;;
41253;SDS011;26987;59.928;30.306;2024-02-21T14:11:21;20.23;;;8.20;;
41253;SDS011;26987;59.928;30.306;2024-02-21T14:13:49;19.48;;;7.90;;
41253;SDS011;26987;59.928;30.306;2024-02-21T14:16:16;19.13;;;8.25;;
41253;SDS011;26987;59.928;30.306;2024-02-21T14:18:44;21.48;;;8.38;;
41253;SDS011;26987;59.928;30.306;2024-02-21T14:21:14;24.10;;;9.35;;
41253;SDS011;26987;59.928;30.306;2024-02-21T14:23:41;25.63;;;10.13;;
41253;SDS011;26987;59.928;30.306;2024-02-21T14:26:10;25.77;;;9.10;;
41253;SDS011;26987;59.928;30.306;2024-02-21T14:28:40;21.63;;;8.90;;
41253;SDS011;26987;59.928;30.306;2024-02-21T14:31:08;24.95;;;7.88;;
41253;SDS011;26987;59.928;30.306;2024-02-21T14:33:36;22.45;;;9.35;;